TimeEDT,TemperatureF,Dew PointF,Humidity,Sea Level PressureIn,VisibilityMPH,Wind Direction,Wind SpeedMPH,Gust SpeedMPH,PrecipitationIn,Events,Conditions,WindDirDegrees,DateUTC
12:07 AM,57.2,55.4,94,29.87,10.0,SSW,4.6,-,N/A,,Light Drizzle,210,2012-10-06 04:07:00
12:21 AM,57.2,55.4,94,29.88,10.0,Calm,Calm,-,N/A,Rain,Light Rain,0,2012-10-06 04:21:00
12:23 AM,57.2,55.4,94,29.87,10.0,Calm,Calm,-,N/A,Rain,Light Rain,0,2012-10-06 04:23:00
12:38 AM,55.4,55.4,100,29.86,8.0,Variable,3.5,-,N/A,Rain,Light Rain,0,2012-10-06 04:38:00
12:44 AM,55.4,55.4,100,29.86,10.0,Calm,Calm,-,N/A,,Light Drizzle,0,2012-10-06 04:44:00
12:49 AM,55.4,55.4,100,29.86,10.0,Calm,Calm,-,N/A,,Light Drizzle,0,2012-10-06 04:49:00
12:51 AM,55.4,55.4,100,29.86,10.0,West,3.5,-,N/A,,Light Drizzle,260,2012-10-06 04:51:00
12:55 AM,55.8,55.8,100,29.86,8.0,Calm,Calm,-,0.02,Rain,Light Rain,0,2012-10-06 04:55:00
1:35 AM,53.6,53.6,100,29.84,6.0,SW,3.5,-,N/A,Rain,Light Rain,220,2012-10-06 05:35:00
1:44 AM,53.6,53.6,100,29.84,8.0,Calm,Calm,-,N/A,Rain,Light Rain,0,2012-10-06 05:44:00
1:55 AM,54.0,54.0,100,29.83,6.0,West,4.6,-,0.06,Rain,Rain,270,2012-10-06 05:55:00
1:56 AM,53.6,53.6,100,29.83,6.0,West,4.6,-,N/A,Rain,Rain,280,2012-10-06 05:56:00
2:14 AM,51.8,51.8,100,29.83,8.0,West,5.8,-,N/A,Rain,Light Rain,280,2012-10-06 06:14:00
2:21 AM,51.8,51.8,100,29.84,10.0,West,6.9,-,N/A,Rain,Light Rain,270,2012-10-06 06:21:00
2:31 AM,51.8,51.8,100,29.83,6.0,West,5.8,-,N/A,Rain,Rain,260,2012-10-06 06:31:00
2:36 AM,51.8,51.8,100,29.83,8.0,West,5.8,-,N/A,Rain,Light Rain,270,2012-10-06 06:36:00
2:55 AM,51.3,51.3,100,29.82,10.0,WSW,3.5,-,0.06,Rain,Light Rain,240,2012-10-06 06:55:00
3:12 AM,51.8,51.8,100,29.81,7.0,Calm,Calm,-,N/A,Rain,Light Rain,0,2012-10-06 07:12:00
3:23 AM,50.0,50.0,100,29.81,9.0,Calm,Calm,-,N/A,Rain,Light Rain,0,2012-10-06 07:23:00
3:36 AM,50.0,50.0,100,29.80,7.0,West,3.5,-,N/A,Rain,Light Rain,260,2012-10-06 07:36:00
3:47 AM,50.0,50.0,100,29.80,5.0,WNW,4.6,-,N/A,Rain,Light Rain,290,2012-10-06 07:47:00
3:48 AM,50.0,50.0,100,29.80,5.0,WNW,4.6,-,N/A,Rain,Light Rain,290,2012-10-06 07:48:00
3:55 AM,50.5,50.5,100,29.81,7.0,WNW,5.8,-,0.07,Rain,Light Rain,290,2012-10-06 07:55:00
3:58 AM,50.0,50.0,100,29.81,5.0,West,4.6,-,N/A,Rain,Rain,270,2012-10-06 07:58:00
4:00 AM,50.0,50.0,100,29.81,5.0,West,4.6,-,N/A,Rain,Rain,280,2012-10-06 08:00:00
4:05 AM,50.0,50.0,100,29.81,5.0,WNW,3.5,-,N/A,Rain,Rain,290,2012-10-06 08:05:00
4:15 AM,50.0,50.0,100,29.78,6.0,North,5.8,-,N/A,Rain,Rain,360,2012-10-06 08:15:00
4:19 AM,50.0,50.0,100,29.78,6.0,North,6.9,-,N/A,Rain,Rain,360,2012-10-06 08:19:00
4:21 AM,50.0,50.0,100,29.78,7.0,Variable,5.8,-,N/A,Rain,Rain,0,2012-10-06 08:21:00
4:22 AM,50.0,50.0,100,29.78,7.0,Variable,6.9,-,N/A,Rain,Rain,0,2012-10-06 08:22:00
4:24 AM,50.0,50.0,100,29.78,7.0,Variable,4.6,-,N/A,Rain,Rain,0,2012-10-06 08:24:00
4:25 AM,50.0,50.0,100,29.78,7.0,Variable,4.6,-,N/A,Rain,Rain,0,2012-10-06 08:25:00
4:26 AM,48.2,48.2,100,29.77,7.0,North,5.8,-,N/A,Rain,Rain,350,2012-10-06 08:26:00
4:33 AM,48.2,48.2,100,29.78,7.0,NNW,3.5,-,N/A,Rain,Light Rain,330,2012-10-06 08:33:00
4:34 AM,48.2,48.2,100,29.78,7.0,NW,3.5,-,N/A,Rain,Light Rain,320,2012-10-06 08:34:00
4:37 AM,48.2,48.2,100,29.80,6.0,WNW,8.1,-,N/A,Rain,Light Rain,300,2012-10-06 08:37:00
4:38 AM,48.2,48.2,100,29.81,5.0,WNW,9.2,-,N/A,Rain,Light Rain,300,2012-10-06 08:38:00
4:40 AM,48.2,48.2,100,29.81,5.0,WNW,8.1,-,N/A,Rain,Heavy Rain,300,2012-10-06 08:40:00
4:42 AM,48.2,48.2,100,29.81,4.0,Variable,4.6,-,N/A,Rain,Heavy Rain,0,2012-10-06 08:42:00
4:45 AM,48.2,48.2,100,29.81,3.0,NW,5.8,-,N/A,Rain,Heavy Rain,320,2012-10-06 08:45:00
4:54 AM,48.2,48.2,100,29.81,4.0,WNW,6.9,-,N/A,Rain,Heavy Rain,300,2012-10-06 08:54:00
4:55 AM,48.0,48.0,100,29.81,4.0,WNW,5.8,-,0.21,Rain,Heavy Rain,300,2012-10-06 08:55:00
5:06 AM,48.2,48.2,100,29.80,4.0,NW,5.8,-,N/A,Rain,Heavy Rain,310,2012-10-06 09:06:00
5:11 AM,48.2,48.2,100,29.80,4.0,Variable,3.5,-,N/A,Rain,Heavy Rain,0,2012-10-06 09:11:00
5:15 AM,48.2,48.2,100,29.78,4.0,Calm,Calm,-,N/A,Rain,Heavy Rain,0,2012-10-06 09:15:00
5:16 AM,48.2,48.2,100,29.78,4.0,Calm,Calm,-,N/A,Rain,Rain,0,2012-10-06 09:16:00
5:18 AM,48.2,48.2,100,29.78,4.0,Calm,Calm,-,N/A,Rain,Heavy Rain,0,2012-10-06 09:18:00
5:19 AM,48.2,48.2,100,29.78,4.0,Calm,Calm,-,N/A,Rain,Rain,0,2012-10-06 09:19:00
5:27 AM,48.2,48.2,100,29.77,6.0,Calm,Calm,-,N/A,Rain,Light Rain,0,2012-10-06 09:27:00
5:36 AM,48.2,48.2,100,29.77,8.0,Calm,Calm,-,N/A,Rain,Light Rain,0,2012-10-06 09:36:00
5:44 AM,48.2,48.2,100,29.78,6.0,West,3.5,-,N/A,Rain,Rain,270,2012-10-06 09:44:00
5:55 AM,47.7,47.7,100,29.78,7.0,Calm,Calm,-,0.13,Rain,Light Rain,0,2012-10-06 09:55:00
6:00 AM,48.2,48.2,100,29.78,7.0,Calm,Calm,-,N/A,Rain,Light Rain,0,2012-10-06 10:00:00
6:04 AM,48.2,48.2,100,29.79,7.0,West,3.5,-,N/A,Rain,Rain,280,2012-10-06 10:04:00
6:05 AM,48.2,48.2,100,29.79,6.0,West,3.5,-,N/A,Rain,Rain,270,2012-10-06 10:05:00
6:06 AM,48.2,48.2,100,29.79,6.0,West,4.6,-,N/A,Rain,Rain,280,2012-10-06 10:06:00
6:08 AM,48.2,48.2,100,29.79,6.0,WNW,3.5,-,N/A,Rain,Light Rain,290,2012-10-06 10:08:00
6:13 AM,48.2,48.2,100,29.80,5.0,West,3.5,-,N/A,Rain,Rain,280,2012-10-06 10:13:00
6:21 AM,48.2,48.2,100,29.79,4.0,Variable,4.6,-,N/A,Rain,Heavy Rain,0,2012-10-06 10:21:00
6:55 AM,47.1,47.1,100,29.82,4.0,West,6.9,-,0.20,Rain,Heavy Rain,270,2012-10-06 10:55:00
7:14 AM,46.4,46.4,100,29.81,5.0,Variable,3.5,-,N/A,Rain,Rain,0,2012-10-06 11:14:00
7:15 AM,46.4,46.4,100,29.81,5.0,Variable,3.5,-,N/A,Rain,Rain,0,2012-10-06 11:15:00
7:20 AM,46.4,46.4,100,29.81,5.0,WNW,3.5,-,N/A,Rain,Rain,290,2012-10-06 11:20:00
7:24 AM,46.4,46.4,100,29.81,5.0,West,3.5,-,N/A,Rain,Light Rain,270,2012-10-06 11:24:00
7:30 AM,46.4,46.4,100,29.81,7.0,West,3.5,-,N/A,Rain,Light Rain,270,2012-10-06 11:30:00
7:40 AM,46.4,46.4,100,29.82,4.0,West,4.6,-,N/A,Rain,Rain,260,2012-10-06 11:40:00
7:55 AM,46.6,46.6,100,29.81,7.0,Variable,4.6,-,0.12,Rain,Light Rain,0,2012-10-06 11:55:00
8:15 AM,46.4,46.4,100,29.81,10.0,West,4.6,-,N/A,,Light Drizzle,270,2012-10-06 12:15:00
8:55 AM,46.4,46.4,100,29.82,5.0,West,4.6,-,0.05,Rain,Rain,270,2012-10-06 12:55:00
9:26 AM,46.4,46.4,100,29.82,10.0,West,4.6,-,N/A,,Light Drizzle,280,2012-10-06 13:26:00
9:30 AM,46.4,46.4,100,29.82,10.0,West,4.6,-,N/A,,Overcast,270,2012-10-06 13:30:00
9:38 AM,46.4,46.4,100,29.82,10.0,West,4.6,-,N/A,,Overcast,260,2012-10-06 13:38:00
9:39 AM,46.4,46.4,100,29.82,10.0,West,3.5,-,N/A,,Light Drizzle,260,2012-10-06 13:39:00
9:55 AM,46.9,46.9,100,29.82,9.0,West,5.8,-,0.02,Rain,Light Rain,280,2012-10-06 13:55:00
10:17 AM,46.4,46.4,100,29.82,10.0,WSW,4.6,-,N/A,Rain,Light Rain,240,2012-10-06 14:17:00
10:20 AM,48.2,48.2,100,29.82,10.0,Calm,Calm,-,N/A,,Light Drizzle,0,2012-10-06 14:20:00
10:24 AM,48.2,48.2,100,29.82,10.0,WSW,4.6,-,N/A,,Overcast,250,2012-10-06 14:24:00
10:30 AM,48.2,48.2,100,29.82,10.0,Variable,3.5,-,N/A,,Overcast,0,2012-10-06 14:30:00
10:55 AM,47.8,47.8,100,29.82,10.0,WSW,3.5,-,0.01,,Overcast,250,2012-10-06 14:55:00
11:08 AM,48.2,48.2,100,29.82,10.0,SW,4.6,-,N/A,,Overcast,230,2012-10-06 15:08:00
11:23 AM,48.2,48.2,100,29.83,10.0,SW,4.6,-,N/A,,Overcast,230,2012-10-06 15:23:00
11:45 AM,48.2,48.2,100,29.82,10.0,SSW,4.6,-,N/A,,Overcast,210,2012-10-06 15:45:00
11:55 AM,48.9,48.9,100,29.82,10.0,SSW,5.8,-,N/A,,Overcast,210,2012-10-06 15:55:00
11:56 AM,48.2,48.2,100,29.82,10.0,SSW,5.8,-,N/A,,Overcast,210,2012-10-06 15:56:00
12:07 PM,48.2,48.2,100,29.82,8.0,WSW,4.6,-,N/A,,Light Drizzle,240,2012-10-06 16:07:00
12:08 PM,48.2,48.2,100,29.83,7.0,WSW,3.5,-,N/A,,Light Drizzle,240,2012-10-06 16:08:00
12:09 PM,48.2,48.2,100,29.82,7.0,SW,3.5,-,N/A,,Light Drizzle,230,2012-10-06 16:09:00
12:16 PM,48.2,48.2,100,29.83,7.0,SW,5.8,-,N/A,,Light Drizzle,220,2012-10-06 16:16:00
12:20 PM,48.2,48.2,100,29.83,10.0,SW,4.6,-,N/A,,Overcast,230,2012-10-06 16:20:00
12:55 PM,49.3,49.1,99,29.83,10.0,SW,5.8,-,0.00,,Overcast,230,2012-10-06 16:55:00
1:55 PM,52.0,47.3,84,29.82,10.0,WSW,6.9,-,N/A,,Mostly Cloudy,250,2012-10-06 17:55:00
2:55 PM,54.7,44.2,68,29.82,10.0,WSW,15.0,25.3,N/A,,Mostly Cloudy,250,2012-10-06 18:55:00
3:55 PM,54.1,41.5,62,29.83,10.0,WSW,13.8,29.9,N/A,,Mostly Cloudy,250,2012-10-06 19:55:00
4:55 PM,52.5,41.4,66,29.84,10.0,West,17.3,26.5,N/A,,Mostly Cloudy,270,2012-10-06 20:55:00
5:55 PM,51.1,38.5,62,29.86,10.0,West,11.5,26.5,N/A,,Overcast,270,2012-10-06 21:55:00
11:55 PM,45.9,39.6,79,29.99,10.0,West,5.8,-,N/A,,Mostly Cloudy,260,2012-10-07 03:55:00